Time;durP1;ratioP1;P1;durP2;ratioP2;P2;SDS_P1;SDS_P2;PMS_P1;PMS_P2;Temp;Humidity;BMP_temperature;BMP_pressure;BME280_temperature;BME280_humidity;BME280_pressure;Samples;Min_cycle;Max_cycle;Signal;HPM_P1;HPM_P2
2021/08/24 00:00:15;;;;;;;15.37;12.47;;;;;;;16.25;84.91;100808.86;1665762;84;21744;-67
2021/08/24 00:02:42;;;;;;;15.20;12.97;;;;;;;16.24;84.52;100810.76;1664892;83;21825;-67
2021/08/24 00:05:10;;;;;;;17.00;12.87;;;;;;;16.25;84.29;100812.36;1662859;84;22300;-67
2021/08/24 00:07:37;;;;;;;16.10;13.53;;;;;;;16.25;83.87;100811.55;1734904;81;21759;-67
2021/08/24 00:10:06;;;;;;;17.80;13.60;;;;;;;16.24;83.66;100811.31;1729257;80;21778;-67
2021/08/24 00:12:33;;;;;;;14.37;12.50;;;;;;;16.23;83.60;100811.06;1736267;80;21896;-67
2021/08/24 00:15:00;;;;;;;14.87;12.73;;;;;;;16.20;83.57;100808.94;1735704;80;21784;-67
2021/08/24 00:17:27;;;;;;;15.97;13.17;;;;;;;16.18;83.58;100804.62;1735993;80;22278;-67
2021/08/24 00:19:53;;;;;;;14.00;12.50;;;;;;;16.16;83.53;100812.76;1736974;80;21761;-67
2021/08/24 00:22:22;;;;;;;14.43;12.13;;;;;;;16.14;83.57;100810.89;1747170;80;21774;-67
2021/08/24 00:24:50;;;;;;;15.17;12.80;;;;;;;16.11;83.58;100812.26;1756503;80;21757;-67
2021/08/24 00:27:16;;;;;;;15.13;12.77;;;;;;;16.09;83.49;100817.15;1729454;81;21824;-67
2021/08/24 00:29:43;;;;;;;15.00;12.73;;;;;;;16.07;83.48;100816.63;1713242;80;21738;-67
2021/08/24 00:32:11;;;;;;;16.97;13.13;;;;;;;16.04;83.15;100814.50;1734940;80;21862;-67
2021/08/24 00:34:37;;;;;;;15.83;11.90;;;;;;;16.03;83.00;100815.59;1742197;80;21713;-67
2021/08/24 00:37:04;;;;;;;14.77;12.60;;;;;;;16.04;82.99;100808.31;1746015;81;21787;-67
2021/08/24 00:39:31;;;;;;;16.90;12.70;;;;;;;16.01;83.04;100805.64;1731806;80;22253;-67
2021/08/24 00:41:58;;;;;;;16.93;12.87;;;;;;;16.01;83.16;100809.68;1736688;80;21722;-67
2021/08/24 00:44:25;;;;;;;18.53;13.37;;;;;;;16.00;83.17;100812.12;1725144;80;21713;-67
2021/08/24 00:46:52;;;;;;;15.40;12.63;;;;;;;15.99;82.63;100813.23;1721091;81;21721;-67
2021/08/24 00:49:24;;;;;;;15.93;12.43;;;;;;;15.99;81.91;100809.19;1726342;81;22178;-67
2021/08/24 00:52:07;;;;;;;16.07;12.20;;;;;;;16.00;81.44;100810.78;1738764;80;22223;-67
2021/08/24 00:54:34;;;;;;;15.43;11.97;;;;;;;16.03;81.17;100808.06;1701631;82;21658;-67
2021/08/24 00:57:10;;;;;;;16.23;12.50;;;;;;;16.06;81.13;100810.98;1672825;84;21793;-67
2021/08/24 00:59:38;;;;;;;19.10;12.47;;;;;;;16.07;81.08;100809.89;1658151;83;22357;-67
2021/08/24 01:02:09;;;;;;;17.43;12.17;;;;;;;16.09;81.11;100806.37;1673032;83;22179;-67
2021/08/24 01:04:37;;;;;;;17.32;12.55;;;;;;;16.11;81.36;100808.22;1681331;83;22350;-67
2021/08/24 01:07:20;;;;;;;19.67;13.60;;;;;;;16.13;81.75;100811.98;1670804;84;21046;-66
2021/08/24 01:10:21;;;;;;;16.63;12.13;;;;;;;16.13;82.01;100808.74;1657343;83;21760;-67
2021/08/24 01:13:06;;;;;;;15.70;12.55;;;;;;;16.13;82.01;100808.74;1669184;83;21037;-67
2021/08/24 01:15:48;;;;;;;15.07;12.00;;;;;;;16.13;82.50;100807.39;1666350;84;21580;-67
2021/08/24 01:18:36;;;;;;;15.48;12.35;;;;;;;16.15;82.09;100805.20;1722079;81;21834;-67
2021/08/24 01:21:11;;;;;;;17.60;13.03;;;;;;;16.16;81.74;100798.73;1736609;80;21587;-67
2021/08/24 01:24:13;;;;;;;19.13;12.57;;;;;;;16.18;81.69;100796.53;1736963;80;21161;-67
2021/08/24 01:26:53;;;;;;;17.40;12.63;;;;;;;16.21;81.87;100793.02;1726102;81;21726;-67
2021/08/24 01:29:48;;;;;;;21.00;12.57;;;;;;;16.21;82.26;100792.47;1734238;80;21060;-66
2021/08/24 01:32:46;;;;;;;18.37;12.87;;;;;;;16.20;82.50;100783.34;1729247;80;21701;-66
2021/08/24 01:36:01;;;;;;;15.47;12.17;;;;;;;16.20;82.76;100781.98;1724191;80;21762;-67
2021/08/24 01:38:34;;;;;;;17.73;13.23;;;;;;;16.20;83.16;100786.03;1731924;81;21740;-67
2021/08/24 01:41:21;;;;;;;17.53;13.00;;;;;;;16.15;83.52;100783.63;1739198;80;21682;-67
2021/08/24 01:44:02;;;;;;;18.47;13.50;;;;;;;16.14;83.57;100782.59;1737436;80;21769;-67
2021/08/24 01:46:57;;;;;;;17.42;12.88;;;;;;;16.15;83.62;100782.84;1727026;81;21073;-67
2021/08/24 01:49:29;;;;;;;22.50;14.33;;;;;;;16.15;83.73;100778.25;1732108;81;21043;-66
2021/08/24 01:51:56;;;;;;;16.40;13.10;;;;;;;16.18;83.72;100774.18;1719468;80;21774;-66
2021/08/24 01:54:33;;;;;;;18.40;12.70;;;;;;;16.18;83.75;100774.97;1743737;80;21781;-67
2021/08/24 01:57:00;;;;;;;17.40;12.87;;;;;;;16.21;83.81;100763.38;1738922;80;22216;-67
2021/08/24 01:59:43;;;;;;;16.53;12.73;;;;;;;16.21;83.81;100763.38;1735369;81;21083;-67
2021/08/24 02:02:14;;;;;;;18.47;14.10;;;;;;;16.20;83.75;100761.78;1726340;80;21507;-67
2021/08/24 02:05:01;;;;;;;17.23;13.90;;;;;;;16.18;83.89;100756.11;1732907;80;21807;-67
2021/08/24 02:07:33;;;;;;;17.57;13.33;;;;;;;16.15;83.98;100762.63;1702888;80;21685;-67
2021/08/24 02:10:08;;;;;;;19.57;14.63;;;;;;;16.15;83.96;100758.59;1735394;80;21804;-67
2021/08/24 02:12:37;;;;;;;17.90;13.97;;;;;;;16.15;83.87;100755.89;1731043;80;21851;-67
2021/08/24 02:15:07;;;;;;;19.00;13.63;;;;;;;16.15;83.87;100755.89;1729566;80;21490;-67
2021/08/24 02:17:38;;;;;;;18.20;14.00;;;;;;;16.15;83.85;100762.08;1715999;81;23115;-67
2021/08/24 02:20:13;;;;;;;20.08;14.10;;;;;;;16.13;83.67;100757.55;1698078;82;20930;-67
2021/08/24 02:22:41;;;;;;;20.53;14.57;;;;;;;16.13;83.52;100758.89;1726471;80;21099;-67
2021/08/24 02:25:19;;;;;;;21.80;14.70;;;;;;;16.08;82.85;100758.94;1741950;80;21028;-68
2021/08/24 02:28:00;;;;;;;20.87;15.17;;;;;;;16.08;82.85;100758.94;1742190;80;21101;-67
2021/08/24 02:30:28;;;;;;;19.73;15.35;;;;;;;16.06;83.26;100756.30;1726674;80;21630;-66
2021/08/24 02:32:55;;;;;;;16.73;14.07;;;;;;;16.02;83.08;100756.05;1735327;80;21052;-67
2021/08/24 02:35:36;;;;;;;18.57;14.40;;;;;;;16.00;82.93;100751.52;1734161;80;21732;-68
2021/08/24 02:38:11;;;;;;;18.35;14.83;;;;;;;15.99;82.78;100754.47;1738837;80;22114;-67
2021/08/24 02:40:43;;;;;;;17.17;14.20;;;;;;;15.97;82.53;100752.63;1734846;80;22161;-67
2021/08/24 02:43:49;;;;;;;17.67;13.80;;;;;;;15.92;82.40;100748.09;1731789;80;21085;-67
2021/08/24 02:46:32;;;;;;;17.90;14.30;;;;;;;15.88;82.33;100745.72;1732855;81;21064;-67
2021/08/24 02:49:06;;;;;;;18.83;14.57;;;;;;;15.81;82.44;100749.31;1728601;80;21751;-67
2021/08/24 02:51:32;;;;;;;18.63;14.53;;;;;;;15.77;82.68;100749.64;1690636;82;22374;-67
2021/08/24 02:54:21;;;;;;;19.27;15.60;;;;;;;15.73;82.72;100745.89;1648510;83;22317;-67
2021/08/24 02:56:49;;;;;;;19.63;15.13;;;;;;;15.68;82.77;100744.86;1669398;83;21715;-67
2021/08/24 02:59:15;;;;;;;18.17;14.37;;;;;;;15.65;82.76;100742.71;1671900;83;21805;-67
2021/08/24 03:01:42;;;;;;;18.33;13.80;;;;;;;15.61;82.81;100745.72;1660114;84;21791;-67
2021/08/24 03:04:10;;;;;;;18.90;14.30;;;;;;;15.55;82.42;100748.75;1659188;83;22375;-67
2021/08/24 03:06:45;;;;;;;17.80;13.77;;;;;;;15.55;82.42;100748.75;1677967;84;21043;-67
2021/08/24 03:09:12;;;;;;;18.43;13.90;;;;;;;15.50;82.54;100753.66;1694972;82;21685;-68
2021/08/24 03:11:45;;;;;;;19.60;15.23;;;;;;;15.48;82.58;100756.62;1698447;82;21763;-67
2021/08/24 03:14:20;;;;;;;17.87;14.67;;;;;;;15.48;82.64;100757.17;1683149;82;21854;-67
2021/08/24 03:17:02;;;;;;;18.47;14.80;;;;;;;15.48;82.62;100752.58;1697203;82;21751;-67
2021/08/24 03:19:30;;;;;;;17.23;13.32;;;;;;;15.47;82.62;100750.19;1703042;82;21818;-67
2021/08/24 03:21:57;;;;;;;19.53;15.43;;;;;;;15.45;82.77;100750.45;1685555;82;21095;-67
2021/08/24 03:24:24;;;;;;;21.30;16.77;;;;;;;15.42;82.87;100751.57;1685162;82;21782;-67
2021/08/24 03:26:51;;;;;;;22.70;16.73;;;;;;;15.34;82.85;100746.27;1696433;82;21789;-67
2021/08/24 03:29:21;;;;;;;23.07;18.33;;;;;;;15.26;83.10;100741.49;1720220;82;22276;-67
2021/08/24 03:31:53;;;;;;;23.60;18.65;;;;;;;15.15;83.48;100738.09;1669012;83;21797;-67
2021/08/24 03:34:19;;;;;;;22.90;18.30;;;;;;;15.07;83.91;100742.76;1672531;84;21064;-68
2021/08/24 03:36:46;;;;;;;23.73;18.67;;;;;;;15.01;84.14;100740.64;1678831;83;22247;-67
2021/08/24 03:39:13;;;;;;;24.63;18.67;;;;;;;14.99;84.33;100736.08;1668489;84;22337;-67
2021/08/24 03:41:40;;;;;;;23.77;19.57;;;;;;;14.99;84.64;100735.28;1668065;84;21864;-67
2021/08/24 03:44:07;;;;;;;24.20;19.53;;;;;;;14.99;84.85;100740.11;1671981;84;21868;-67
2021/08/24 03:46:34;;;;;;;25.77;20.37;;;;;;;15.05;84.76;100741.43;1688825;83;21725;-67
2021/08/24 03:49:01;;;;;;;24.93;19.73;;;;;;;15.09;84.65;100741.91;1685100;82;21790;-67
2021/08/24 03:51:28;;;;;;;25.17;19.83;;;;;;;15.11;84.55;100748.38;1701151;84;21764;-67
2021/08/24 03:53:55;;;;;;;24.93;19.70;;;;;;;15.13;84.50;100749.67;1686702;82;22062;-67
2021/08/24 03:56:21;;;;;;;28.10;21.43;;;;;;;15.16;84.43;100751.80;1690735;82;21784;-67
2021/08/24 03:58:47;;;;;;;27.07;20.23;;;;;;;15.19;84.42;100748.55;1692741;82;22890;-67
2021/08/24 04:01:17;;;;;;;24.10;20.53;;;;;;;15.28;84.12;100746.61;1685422;82;21786;-68
2021/08/24 04:03:44;;;;;;;25.53;19.40;;;;;;;15.36;83.87;100749.47;1694390;82;21779;-67
2021/08/24 04:06:11;;;;;;;25.03;19.50;;;;;;;15.47;83.71;100745.61;1698048;82;21806;-67
2021/08/24 04:08:38;;;;;;;26.77;20.20;;;;;;;15.55;83.41;100744.17;1698613;82;21792;-67
2021/08/24 04:11:06;;;;;;;23.13;18.77;;;;;;;15.62;82.99;100751.36;1666739;84;21756;-68
2021/08/24 04:13:33;;;;;;;24.60;18.80;;;;;;;15.68;82.74;100745.41;1689333;82;21781;-68
2021/08/24 04:16:07;;;;;;;22.87;18.37;;;;;;;15.73;82.33;100740.50;1698830;82;21767;-67
2021/08/24 04:18:35;;;;;;;23.87;18.47;;;;;;;15.80;81.93;100742.33;1688974;82;21142;-67
2021/08/24 04:21:04;;;;;;;24.77;18.23;;;;;;;15.86;81.72;100743.33;1671196;84;21829;-67
2021/08/24 04:23:31;;;;;;;22.47;18.23;;;;;;;15.94;81.64;100740.53;1680522;82;21746;-67
2021/08/24 04:25:59;;;;;;;23.53;17.67;;;;;;;16.04;81.67;100743.10;1683035;82;21103;-67
2021/08/24 04:28:26;;;;;;;23.37;17.80;;;;;;;16.14;81.51;100744.31;1662340;83;21061;-68
2021/08/24 04:30:52;;;;;;;22.10;17.37;;;;;;;16.24;81.14;100743.93;1673680;85;21595;-67
2021/08/24 04:33:22;;;;;;;22.00;16.43;;;;;;;16.37;80.68;100749.95;1692134;82;21052;-67
2021/08/24 04:35:52;;;;;;;21.73;17.10;;;;;;;16.45;80.26;100758.72;1693110;83;21142;-67
2021/08/24 04:38:19;;;;;;;21.70;16.97;;;;;;;16.49;79.91;100759.77;1696393;82;21084;-67
2021/08/24 04:40:46;;;;;;;21.20;16.10;;;;;;;16.56;79.33;100773.67;1676733;82;21714;-68
2021/08/24 04:43:14;;;;;;;23.30;16.13;;;;;;;16.62;78.96;100774.41;1695026;82;22158;-68
2021/08/24 04:45:41;;;;;;;18.40;16.10;;;;;;;16.70;78.31;100771.59;1696453;82;21070;-67
2021/08/24 04:48:08;;;;;;;21.80;16.53;;;;;;;16.77;77.92;100777.45;1691231;82;21103;-67
2021/08/24 04:50:35;;;;;;;21.13;15.90;;;;;;;16.82;78.41;100787.62;1690801;82;21036;-67
2021/08/24 04:53:04;;;;;;;19.17;15.33;;;;;;;16.88;78.25;100774.87;1722554;80;21135;-67
2021/08/24 04:55:33;;;;;;;18.00;14.07;;;;;;;16.94;78.14;100770.97;1732125;81;20993;-67
2021/08/24 04:58:02;;;;;;;19.83;14.80;;;;;;;17.00;78.14;100778.44;1729741;81;21642;-68
2021/08/24 05:00:33;;;;;;;19.10;15.87;;;;;;;17.00;78.03;100771.14;1739182;80;21496;-67
2021/08/24 05:03:01;;;;;;;20.07;15.53;;;;;;;17.06;78.09;100772.67;1723192;80;21025;-68
2021/08/24 05:05:28;;;;;;;20.10;15.53;;;;;;;17.18;77.86;100770.07;1716815;81;21100;-67
2021/08/24 05:07:54;;;;;;;21.03;15.57;;;;;;;17.25;77.80;100774.53;1726538;80;20961;-68
2021/08/24 05:10:22;;;;;;;19.50;15.00;;;;;;;17.29;77.71;100775.54;1726969;80;21068;-68
2021/08/24 05:12:49;;;;;;;19.33;14.33;;;;;;;17.33;77.70;100764.39;1726536;80;22231;-68
2021/08/24 05:15:15;;;;;;;16.83;13.37;;;;;;;17.42;77.78;100768.02;1732451;80;21080;-68
2021/08/24 05:17:42;;;;;;;16.83;14.33;;;;;;;17.48;77.97;100761.98;1730534;80;21384;-68
2021/08/24 05:20:09;;;;;;;19.57;15.87;;;;;;;17.52;78.05;100758.38;1735947;80;21622;-68
2021/08/24 05:22:36;;;;;;;19.87;15.67;;;;;;;17.57;78.22;100760.99;1722325;80;21108;-68
2021/08/24 05:25:03;;;;;;;17.60;14.63;;;;;;;17.71;78.14;100760.20;1732997;81;21523;-68
2021/08/24 05:27:32;;;;;;;18.57;15.17;;;;;;;17.84;77.72;100759.44;1725636;80;21680;-68
2021/08/24 05:30:05;;;;;;;19.07;15.20;;;;;;;17.95;77.68;100760.82;1737650;80;21026;-68
2021/08/24 05:32:32;;;;;;;20.20;17.07;;;;;;;18.07;77.68;100764.93;1735924;80;21021;-67
2021/08/24 05:35:00;;;;;;;18.57;15.70;;;;;;;18.21;77.21;100759.74;1727349;81;21099;-67
2021/08/24 05:37:26;;;;;;;19.90;16.60;;;;;;;18.36;76.89;100761.86;1731585;80;21542;-66
2021/08/24 05:39:54;;;;;;;20.83;16.83;;;;;;;18.46;76.08;100757.60;1737841;80;21060;-68
2021/08/24 05:42:20;;;;;;;20.23;15.80;;;;;;;18.58;76.05;100757.05;1732080;81;21016;-67
2021/08/24 05:44:46;;;;;;;19.60;16.33;;;;;;;18.70;75.99;100760.02;1739099;80;21064;-67
2021/08/24 05:47:13;;;;;;;21.13;17.13;;;;;;;18.87;75.31;100758.82;1737359;80;21053;-68
2021/08/24 05:49:40;;;;;;;20.43;16.13;;;;;;;19.06;74.62;100753.78;1741963;80;21589;-67
2021/08/24 05:52:09;;;;;;;19.87;16.20;;;;;;;19.24;73.75;100763.59;1737114;80;20992;-68
2021/08/24 05:54:37;;;;;;;21.30;16.30;;;;;;;19.42;73.39;100761.80;1737695;80;21674;-68
2021/08/24 05:57:05;;;;;;;18.67;15.37;;;;;;;19.58;72.69;100766.25;1737512;80;21064;-68
2021/08/24 05:59:33;;;;;;;24.63;16.70;;;;;;;19.72;71.98;100754.77;1739329;80;21044;-68
2021/08/24 06:02:00;;;;;;;21.13;15.50;;;;;;;19.86;71.58;100756.02;1734707;81;21129;-67
2021/08/24 06:04:29;;;;;;;19.53;16.27;;;;;;;20.03;71.18;100752.55;1736045;80;21068;-68
2021/08/24 06:06:55;;;;;;;20.97;15.30;;;;;;;20.14;70.66;100743.02;1741220;80;21119;-68
2021/08/24 06:09:22;;;;;;;20.23;15.67;;;;;;;20.30;70.06;100742.80;1742170;80;21145;-67
2021/08/24 06:11:54;;;;;;;18.87;14.80;;;;;;;20.46;68.94;100738.23;1728330;80;21085;-68
2021/08/24 06:14:23;;;;;;;17.53;14.47;;;;;;;20.58;68.28;100741.15;1711695;80;21765;-68
2021/08/24 06:16:55;;;;;;;18.60;14.83;;;;;;;20.69;67.69;100730.77;1728909;80;21455;-68
2021/08/24 06:19:19;;;;;;;17.10;14.30;;;;;;;20.75;67.08;100738.42;1735838;80;21143;-68
2021/08/24 06:21:46;;;;;;;18.63;15.47;;;;;;;20.89;65.93;100740.95;1732926;80;21065;-67
2021/08/24 06:24:13;;;;;;;17.73;14.43;;;;;;;21.01;65.45;100733.52;1735076;80;21070;-67
2021/08/24 06:26:42;;;;;;;20.50;14.40;;;;;;;21.12;64.72;100733.96;1727881;80;21116;-67
2021/08/24 06:29:08;;;;;;;18.27;14.10;;;;;;;21.18;63.76;100737.54;1729630;80;21087;-68
2021/08/24 06:31:39;;;;;;;16.87;13.83;;;;;;;21.24;62.70;100742.25;1733904;81;21049;-68
2021/08/24 06:34:08;;;;;;;19.07;13.75;;;;;;;21.28;62.57;100743.98;1738087;81;21057;-67
2021/08/24 06:36:36;;;;;;;17.87;14.00;;;;;;;21.38;61.85;100740.14;1737400;80;21040;-67
2021/08/24 06:39:05;;;;;;;16.53;13.40;;;;;;;21.45;62.09;100744.51;1736165;80;21506;-68
2021/08/24 06:41:32;;;;;;;17.13;14.00;;;;;;;21.51;61.92;100740.49;1691073;82;21584;-68
2021/08/24 06:43:59;;;;;;;18.07;14.37;;;;;;;21.61;62.04;100749.41;1673282;84;21112;-67
2021/08/24 06:46:26;;;;;;;16.73;13.60;;;;;;;21.68;61.92;100745.62;1671809;84;21708;-68
2021/08/24 06:48:52;;;;;;;16.07;13.60;;;;;;;21.75;61.77;100745.36;1698082;82;21076;-67
2021/08/24 06:51:19;;;;;;;16.57;12.87;;;;;;;21.84;61.14;100740.42;1695305;82;21159;-69
2021/08/24 06:53:46;;;;;;;18.53;12.47;;;;;;;21.90;60.40;100739.12;1685892;82;21610;-69
2021/08/24 06:56:13;;;;;;;15.43;12.50;;;;;;;21.98;60.31;100743.70;1692793;82;21217;-68
2021/08/24 06:58:40;;;;;;;15.27;12.00;;;;;;;22.04;59.85;100735.58;1659713;84;21094;-68
2021/08/24 07:01:09;;;;;;;15.57;12.53;;;;;;;22.16;59.08;100734.91;1703704;82;21057;-68
2021/08/24 07:03:35;;;;;;;15.93;11.80;;;;;;;22.26;58.51;100726.35;1674316;83;21130;-68
2021/08/24 07:06:02;;;;;;;13.93;10.80;;;;;;;22.40;58.07;100724.72;1692565;82;21097;-67
2021/08/24 07:08:28;;;;;;;12.30;10.50;;;;;;;22.56;57.85;100725.70;1681525;82;21143;-68
2021/08/24 07:10:55;;;;;;;12.23;10.10;;;;;;;22.64;57.45;100724.84;1695068;82;20981;-68
2021/08/24 07:13:22;;;;;;;12.47;9.43;;;;;;;22.71;56.67;100723.73;1689804;82;21496;-68
2021/08/24 07:15:49;;;;;;;13.33;9.60;;;;;;;22.77;55.83;100727.59;1675394;82;21996;-68
2021/08/24 07:18:16;;;;;;;12.90;9.27;;;;;;;22.83;55.71;100725.69;1682343;82;21528;-69
2021/08/24 07:20:45;;;;;;;10.70;8.83;;;;;;;22.89;54.67;100727.07;1689098;82;21492;-68
2021/08/24 07:23:12;;;;;;;11.83;9.10;;;;;;;22.96;54.24;100729.28;1696571;83;21085;-68
2021/08/24 07:25:39;;;;;;;11.00;8.77;;;;;;;23.05;54.95;100727.27;1704027;82;21045;-68
2021/08/24 07:28:12;;;;;;;11.93;7.90;;;;;;;23.21;54.82;100724.69;1676016;84;21524;-68
2021/08/24 07:30:42;;;;;;;11.07;8.40;;;;;;;23.37;54.08;100722.90;1730394;80;21048;-68
2021/08/24 07:33:11;;;;;;;10.00;7.70;;;;;;;23.58;53.15;100720.62;1731828;81;21085;-69
2021/08/24 07:35:38;;;;;;;11.00;7.67;;;;;;;23.76;52.38;100717.15;1734480;80;21037;-69
2021/08/24 07:38:04;;;;;;;9.90;6.93;;;;;;;23.96;50.93;100716.21;1725491;80;21585;-69
2021/08/24 07:40:32;;;;;;;9.47;7.00;;;;;;;24.14;49.49;100713.22;1738431;80;21164;-69
2021/08/24 07:43:00;;;;;;;10.17;7.00;;;;;;;24.31;49.29;100710.98;1732464;80;21014;-69
2021/08/24 07:45:30;;;;;;;8.37;6.40;;;;;;;24.50;48.69;100717.80;1732646;81;21053;-69
2021/08/24 07:47:57;;;;;;;10.57;7.37;;;;;;;24.67;47.86;100712.60;1733370;80;21116;-69
2021/08/24 07:50:23;;;;;;;9.10;6.80;;;;;;;24.81;47.92;100702.08;1737079;80;21798;-69
2021/08/24 07:52:51;;;;;;;10.33;6.77;;;;;;;24.93;46.70;100695.16;1733734;80;21097;-70
2021/08/24 07:55:18;;;;;;;9.53;6.87;;;;;;;25.06;46.52;100696.45;1730050;80;21072;-70
2021/08/24 07:57:45;;;;;;;7.80;6.07;;;;;;;25.22;46.29;100706.86;1729179;80;21179;-70
2021/08/24 08:00:12;;;;;;;7.00;5.93;;;;;;;25.36;46.31;100696.27;1736535;80;21086;-70
2021/08/24 08:02:39;;;;;;;10.53;6.47;;;;;;;25.49;45.67;100692.28;1738807;80;21092;-69
2021/08/24 08:05:06;;;;;;;9.13;5.70;;;;;;;25.60;45.43;100691.73;1726888;80;21091;-69
2021/08/24 08:07:34;;;;;;;7.87;5.23;;;;;;;25.65;44.94;100690.11;1729979;80;21048;-69
2021/08/24 08:10:00;;;;;;;9.37;5.17;;;;;;;25.71;43.25;100686.73;1738403;80;21063;-69
2021/08/24 08:12:27;;;;;;;9.77;5.20;;;;;;;25.73;43.03;100689.11;1737247;80;21052;-69
2021/08/24 08:14:54;;;;;;;7.77;4.80;;;;;;;25.76;42.88;100687.61;1666749;84;21118;-70
2021/08/24 08:17:21;;;;;;;8.47;4.63;;;;;;;25.81;42.57;100690.11;1667420;83;21477;-69
2021/08/24 08:19:47;;;;;;;6.23;4.20;;;;;;;25.91;42.87;100683.50;1698030;82;21056;-69
2021/08/24 08:22:14;;;;;;;7.13;4.63;;;;;;;26.02;42.13;100676.88;1698683;82;21596;-69
2021/08/24 08:24:41;;;;;;;7.93;4.30;;;;;;;26.14;42.09;100679.48;1690093;82;21064;-70
2021/08/24 08:27:08;;;;;;;6.10;4.03;;;;;;;26.23;40.26;100682.02;1697513;83;21481;-70
2021/08/24 08:29:36;;;;;;;6.13;4.10;;;;;;;26.32;40.44;100670.25;1693146;84;21079;-69
2021/08/24 08:32:10;;;;;;;5.70;3.83;;;;;;;26.41;40.14;100669.45;1675336;84;21116;-69
2021/08/24 08:34:37;;;;;;;6.57;3.93;;;;;;;26.51;40.08;100675.54;1698605;82;21097;-69
2021/08/24 08:37:04;;;;;;;5.33;3.53;;;;;;;26.59;39.29;100667.69;1685118;82;21020;-69
2021/08/24 08:39:31;;;;;;;6.00;3.40;;;;;;;26.66;38.67;100667.81;1683746;83;21042;-70
2021/08/24 08:42:10;;;;;;;4.33;3.23;;;;;;;26.71;38.02;100667.50;1689925;82;21990;-70
2021/08/24 08:45:12;;;;;;;6.27;3.30;;;;;;;26.74;36.74;100668.15;1701951;82;21053;-70
2021/08/24 08:47:58;;;;;;;;;;;;;;;26.74;36.90;100668.15;1742508;80;21149;-70
2021/08/24 08:50:44;;;;;;;4.73;3.13;;;;;;;26.76;36.73;100672.70;1735772;82;20400;-68
2021/08/24 08:53:20;;;;;;;4.97;3.30;;;;;;;26.82;37.06;100675.94;1739981;80;21059;-69
2021/08/24 08:56:06;;;;;;;5.70;3.10;;;;;;;26.88;36.41;100672.53;1725859;80;21768;-69
2021/08/24 08:59:07;;;;;;;5.00;3.27;;;;;;;26.93;35.96;100670.05;1731547;80;21021;-69
2021/08/24 09:02:10;;;;;;;5.37;2.67;;;;;;;27.00;35.53;100673.49;1726134;80;21205;-70
2021/08/24 09:04:42;;;;;;;5.27;2.90;;;;;;;27.06;34.80;100669.30;1681869;80;21086;-69
2021/08/24 09:07:23;;;;;;;5.40;3.30;;;;;;;27.10;34.71;100664.66;1752350;80;21131;-69
2021/08/24 09:09:51;;;;;;;5.07;2.90;;;;;;;27.13;34.58;100666.70;1725453;80;21626;-69
2021/08/24 09:12:19;;;;;;;5.80;3.37;;;;;;;27.18;35.21;100665.58;1723983;80;21113;-69
2021/08/24 09:14:52;;;;;;;5.53;2.83;;;;;;;27.24;35.04;100667.65;1734302;80;20929;-69
2021/08/24 09:17:37;;;;;;;4.87;2.90;;;;;;;27.28;35.18;100667.15;1731862;80;21079;-69
2021/08/24 09:20:26;;;;;;;5.37;2.67;;;;;;;27.34;34.17;100660.19;1713662;80;21084;-69
2021/08/24 09:22:53;;;;;;;3.30;2.30;;;;;;;27.40;34.99;100652.42;1734531;80;21189;-70
2021/08/24 09:25:34;;;;;;;3.77;2.20;;;;;;;27.52;34.87;100655.55;1740410;80;21093;-69
2021/08/24 09:28:09;;;;;;;3.65;2.55;;;;;;;27.60;33.26;100652.52;1736143;81;25017;-69
2021/08/24 09:30:36;;;;;;;4.10;2.73;;;;;;;27.62;32.92;100653.53;1740326;82;21508;-69
2021/08/24 09:33:05;;;;;;;4.47;2.40;;;;;;;27.60;33.06;100653.10;1731123;80;22252;-70
2021/08/24 09:35:37;;;;;;;3.77;2.60;;;;;;;27.58;33.37;100657.60;1730249;81;21306;-69
2021/08/24 09:38:18;;;;;;;6.87;2.67;;;;;;;27.62;33.42;100654.13;1724994;80;21036;-70
2021/08/24 09:40:51;;;;;;;4.15;2.42;;;;;;;27.70;33.31;100649.72;1726682;81;21481;-70
2021/08/24 09:43:36;;;;;;;4.47;2.60;;;;;;;27.78;33.75;100645.16;1721732;80;21036;-71
2021/08/24 09:46:20;;;;;;;4.67;2.63;;;;;;;27.87;34.89;100653.10;1726832;81;21061;-69
2021/08/24 09:49:07;;;;;;;5.50;2.57;;;;;;;27.91;34.72;100645.73;1734299;80;21104;-69
2021/08/24 09:51:47;;;;;;;4.03;2.53;;;;;;;27.99;34.97;100641.89;1737710;82;21036;-68
2021/08/24 09:54:27;;;;;;;5.27;2.93;;;;;;;28.15;34.42;100638.36;1722903;80;21042;-69
2021/08/24 09:56:59;;;;;;;5.05;2.83;;;;;;;28.32;32.80;100634.82;1739271;80;21077;-69
2021/08/24 09:59:36;;;;;;;6.13;2.67;;;;;;;28.43;32.24;100638.49;1737977;80;21040;-69
2021/08/24 10:02:04;;;;;;;5.93;2.80;;;;;;;28.47;32.90;100639.34;1737996;80;21139;-69
2021/08/24 10:04:33;;;;;;;5.13;2.80;;;;;;;28.57;32.75;100629.04;1744148;80;21032;-69
2021/08/24 10:07:04;;;;;;;3.80;2.63;;;;;;;28.64;32.54;100627.73;1722314;82;21077;-69
2021/08/24 10:09:36;;;;;;;4.35;2.40;;;;;;;28.72;32.80;100625.23;1726453;80;21052;-68
2021/08/24 10:12:21;;;;;;;3.70;2.40;;;;;;;28.78;32.26;100622.94;1730395;80;21050;-69
2021/08/24 10:14:50;;;;;;;5.10;2.70;;;;;;;28.79;33.24;100621.77;1733490;80;20990;-70
2021/08/24 10:17:36;;;;;;;4.53;2.50;;;;;;;28.78;33.51;100620.78;1721876;82;21103;-68
2021/08/24 10:20:35;;;;;;;4.80;2.37;;;;;;;28.84;32.44;100611.02;1728503;80;21565;-69
2021/08/24 10:23:05;;;;;;;4.90;2.50;;;;;;;28.92;31.52;100614.02;1724020;82;21087;-68
2021/08/24 10:25:43;;;;;;;4.87;2.50;;;;;;;28.96;31.57;100607.98;1733056;80;21190;-68
2021/08/24 10:28:16;;;;;;;4.77;2.87;;;;;;;29.00;31.44;100604.70;1751908;80;21854;-69
2021/08/24 10:31:24;;;;;;;4.40;2.40;;;;;;;29.04;31.70;100599.22;1721909;80;21119;-70
2021/08/24 10:34:12;;;;;;;5.50;2.60;;;;;;;29.07;31.42;100597.88;1730280;80;21037;-69
2021/08/24 10:36:45;;;;;;;5.73;2.93;;;;;;;28.98;31.38;100595.41;1726125;81;21100;-69
2021/08/24 10:39:31;;;;;;;4.00;2.80;;;;;;;28.89;30.92;100599.66;1711603;82;21606;-68
2021/08/24 10:42:17;;;;;;;6.77;2.47;;;;;;;28.79;31.27;100601.15;1736425;80;21553;-70
2021/08/24 10:45:01;;;;;;;4.23;2.60;;;;;;;28.75;31.85;100597.58;1736498;80;21371;-69
2021/08/24 10:47:48;;;;;;;5.90;2.90;;;;;;;28.68;32.33;100592.03;1733719;81;21022;-69
2021/08/24 10:50:43;;;;;;;4.53;2.80;;;;;;;28.62;31.70;100594.33;1721650;81;21084;-68
2021/08/24 10:53:32;;;;;;;5.20;2.67;;;;;;;28.60;31.79;100587.06;1740816;82;21092;-69
2021/08/24 10:56:21;;;;;;;7.40;3.00;;;;;;;28.68;32.24;100590.06;1741651;80;21852;-68
2021/08/24 10:59:07;;;;;;;4.07;2.47;;;;;;;28.74;32.26;100583.05;1737293;82;21143;-69
2021/08/24 11:02:06;;;;;;;4.20;2.30;;;;;;;28.85;31.74;100576.85;1733142;80;21500;-69
2021/08/24 11:05:14;;;;;;;4.50;2.60;;;;;;;28.93;31.92;100575.16;1727990;80;21139;-69
2021/08/24 11:08:15;;;;;;;4.57;2.60;;;;;;;29.03;31.40;100566.03;1729895;81;21480;-69
2021/08/24 11:11:06;;;;;;;4.97;2.80;;;;;;;29.10;30.73;100566.08;1723077;80;21130;-68
2021/08/24 11:14:12;;;;;;;5.42;3.08;;;;;;;29.15;31.63;100561.58;1722390;80;28497;-69
2021/08/24 11:17:15;;;;;;;6.17;2.73;;;;;;;29.20;31.15;100552.38;1733126;80;21596;-68
2021/08/24 11:20:06;;;;;;;4.93;2.60;;;;;;;29.19;30.21;100565.94;1736547;81;21119;-69
2021/08/24 11:23:10;;;;;;;5.87;3.17;;;;;;;29.18;30.18;100569.06;1728814;80;21044;-69
2021/08/24 11:25:52;;;;;;;5.97;2.50;;;;;;;29.18;30.45;100562.97;1726911;80;22020;-70
2021/08/24 11:28:45;;;;;;;5.20;2.73;;;;;;;29.17;30.66;100557.27;1720917;81;21112;-71
2021/08/24 11:31:26;;;;;;;5.87;2.53;;;;;;;29.16;30.98;100558.45;1729667;80;21040;-70
2021/08/24 11:34:12;;;;;;;4.35;2.58;;;;;;;29.14;29.78;100555.29;1718016;80;21135;-70
2021/08/24 11:36:46;;;;;;;4.50;2.70;;;;;;;29.06;30.25;100557.80;1723030;80;21051;-69
2021/08/24 11:39:38;;;;;;;3.50;2.43;;;;;;;28.99;30.08;100548.89;1733324;82;21520;-69
2021/08/24 11:42:05;;;;;;;4.23;2.17;;;;;;;28.97;30.11;100553.97;1737299;80;20997;-68